Time;durP1;ratioP1;P1;durP2;ratioP2;P2;SDS_P1;SDS_P2;PMS_P1;PMS_P2;Temp;Humidity;BMP_temperature;BMP_pressure;BME280_temperature;BME280_humidity;BME280_pressure;Samples;Min_cycle;Max_cycle;Signal;HPM_P1;HPM_P2
2022/07/07 00:02:50;;;;;;;5.53;3.90;;;;;;;;;;6002593;29;20127;-80
2022/07/07 00:05:52;;;;;;;4.78;4.05;;;;;;;;;;6007946;29;20045;-80
2022/07/07 00:08:54;;;;;;;4.70;4.18;;;;;;;;;;6004872;29;20049;-82
2022/07/07 00:11:57;;;;;;;5.07;4.03;;;;;;;;;;6008865;29;20071;-81
2022/07/07 00:14:59;;;;;;;6.18;4.30;;;;;;;;;;6030127;29;20053;-81
2022/07/07 00:18:00;;;;;;;5.78;4.38;;;;;;;;;;6030290;29;20049;-81
2022/07/07 00:21:02;;;;;;;5.20;4.38;;;;;;;;;;6031138;29;20137;-82
2022/07/07 00:24:04;;;;;;;5.75;4.45;;;;;;;;;;6015016;29;20074;-82
2022/07/07 00:27:06;;;;;;;6.00;4.80;;;;;;;;;;6029741;29;20053;-81
2022/07/07 00:30:08;;;;;;;5.75;4.70;;;;;;;;;;6030757;29;20057;-83
2022/07/07 00:33:10;;;;;;;5.40;4.30;;;;;;;;;;6015633;29;20577;-81
2022/07/07 00:36:12;;;;;;;4.15;3.75;;;;;;;;;;6007905;29;20046;-82
2022/07/07 00:39:14;;;;;;;4.20;3.80;;;;;;;;;;6026884;29;20200;-82
2022/07/07 00:42:16;;;;;;;6.38;4.43;;;;;;;;;;6029024;29;20057;-82
2022/07/07 00:45:18;;;;;;;4.80;4.23;;;;;;;;;;6011616;29;20049;-81
2022/07/07 00:48:20;;;;;;;5.13;3.70;;;;;;;;;;6024725;29;20045;-81
2022/07/07 00:51:22;;;;;;;5.93;5.13;;;;;;;;;;6029822;29;20105;-82
2022/07/07 00:54:24;;;;;;;6.28;4.65;;;;;;;;;;6023619;29;20046;-81
2022/07/07 00:57:26;;;;;;;6.75;4.30;;;;;;;;;;6030815;29;20057;-81
2022/07/07 01:00:30;;;;;;;6.85;3.88;;;;;;;;;;6027725;29;20057;-81
2022/07/07 01:03:32;;;;;;;4.60;3.53;;;;;;;;;;6032350;29;20053;-79
2022/07/07 01:06:35;;;;;;;3.67;3.30;;;;;;;;;;6000127;29;20052;-82
2022/07/07 01:09:37;;;;;;;3.13;2.83;;;;;;;;;;6031674;29;20466;-81
2022/07/07 01:12:40;;;;;;;3.88;3.28;;;;;;;;;;6033202;29;20050;-81
2022/07/07 01:15:41;;;;;;;6.03;3.55;;;;;;;;;;6012733;29;20098;-81
2022/07/07 01:18:44;;;;;;;4.85;3.75;;;;;;;;;;6033134;29;20075;-81
2022/07/07 01:21:51;;;;;;;3.72;3.42;;;;;;;;;;6018541;29;20098;-79
2022/07/07 01:24:53;;;;;;;5.32;3.30;;;;;;;;;;6036011;29;20478;-81
2022/07/07 01:27:55;;;;;;;3.58;3.15;;;;;;;;;;5999320;29;20109;-80
2022/07/07 01:30:58;;;;;;;4.32;3.00;;;;;;;;;;6016027;29;20135;-80
2022/07/07 01:34:00;;;;;;;3.40;3.10;;;;;;;;;;6030235;29;20054;-80
2022/07/07 01:37:02;;;;;;;5.25;3.20;;;;;;;;;;6016100;29;20117;-80
2022/07/07 01:40:04;;;;;;;3.67;3.22;;;;;;;;;;6019661;29;20124;-80
2022/07/07 01:43:06;;;;;;;5.05;3.15;;;;;;;;;;5991496;29;20058;-80
2022/07/07 01:46:07;;;;;;;3.30;3.00;;;;;;;;;;6030641;29;20125;-80
2022/07/07 01:49:10;;;;;;;3.60;3.30;;;;;;;;;;6026904;29;20053;-80
2022/07/07 01:52:12;;;;;;;4.97;3.00;;;;;;;;;;6033394;29;20045;-80
2022/07/07 01:55:13;;;;;;;4.18;3.30;;;;;;;;;;6035727;29;20069;-80
2022/07/07 01:58:15;;;;;;;4.72;3.50;;;;;;;;;;6033408;29;20185;-81
2022/07/07 02:01:17;;;;;;;4.00;3.60;;;;;;;;;;5957850;29;20605;-80
2022/07/07 02:04:19;;;;;;;4.65;3.38;;;;;;;;;;6029781;29;20620;-80
2022/07/07 02:07:21;;;;;;;5.00;3.77;;;;;;;;;;6010227;29;20634;-81
2022/07/07 02:13:47;;;;;;;6.07;3.67;;;;;;;;;;6013323;29;20068;-81
2022/07/07 02:16:48;;;;;;;4.97;3.50;;;;;;;;;;6009646;29;20083;-80
2022/07/07 02:19:51;;;;;;;4.32;3.25;;;;;;;;;;6026367;29;20459;-81
2022/07/07 02:22:52;;;;;;;3.10;2.80;;;;;;;;;;6034545;29;20097;-80
2022/07/07 02:25:54;;;;;;;3.33;2.97;;;;;;;;;;6026986;29;20505;-80
2022/07/07 02:28:55;;;;;;;2.85;2.55;;;;;;;;;;6029023;29;20470;-80
2022/07/07 02:31:57;;;;;;;4.40;3.10;;;;;;;;;;6033295;29;20073;-80
2022/07/07 02:35:01;;;;;;;3.22;2.90;;;;;;;;;;6011144;29;20060;-80
2022/07/07 02:38:03;;;;;;;4.50;3.00;;;;;;;;;;6032976;29;20506;-80
2022/07/07 02:41:05;;;;;;;3.78;3.10;;;;;;;;;;6032801;29;20109;-80
2022/07/07 02:44:07;;;;;;;3.60;2.92;;;;;;;;;;6028533;29;20095;-80
2022/07/07 02:47:09;;;;;;;3.30;3.00;;;;;;;;;;6032181;29;20061;-81
2022/07/07 02:50:10;;;;;;;5.10;3.40;;;;;;;;;;6026610;29;20549;-79
2022/07/07 02:53:13;;;;;;;3.65;3.15;;;;;;;;;;6014245;29;20109;-80
2022/07/07 02:56:14;;;;;;;3.35;3.08;;;;;;;;;;6029884;29;20050;-80
2022/07/07 02:59:16;;;;;;;3.53;3.22;;;;;;;;;;6015912;29;20130;-79
2022/07/07 03:02:18;;;;;;;3.95;3.30;;;;;;;;;;6016584;29;20057;-81
2022/07/07 03:05:21;;;;;;;5.45;3.35;;;;;;;;;;6031603;29;20068;-79
2022/07/07 03:08:23;;;;;;;5.07;3.13;;;;;;;;;;6015013;29;20475;-80
2022/07/07 03:11:31;;;;;;;3.85;3.10;;;;;;;;;;6030638;29;20053;-80
2022/07/07 03:14:33;;;;;;;5.35;3.03;;;;;;;;;;6030517;29;20073;-80
2022/07/07 03:17:35;;;;;;;6.00;3.70;;;;;;;;;;6024132;29;20164;-80
2022/07/07 03:20:37;;;;;;;5.85;3.35;;;;;;;;;;6030899;29;20390;-79
2022/07/07 03:23:39;;;;;;;4.90;3.60;;;;;;;;;;6015631;29;20105;-78
2022/07/07 03:26:40;;;;;;;5.10;3.47;;;;;;;;;;6012644;29;20132;-80
2022/07/07 03:29:42;;;;;;;4.18;3.47;;;;;;;;;;6028639;29;20217;-79
2022/07/07 03:32:44;;;;;;;4.25;3.53;;;;;;;;;;6033728;29;20101;-80
2022/07/07 03:35:45;;;;;;;3.65;3.30;;;;;;;;;;6002093;29;20049;-81
2022/07/07 03:38:47;;;;;;;4.28;3.00;;;;;;;;;;6031868;29;20098;-80
2022/07/07 03:41:49;;;;;;;6.00;3.35;;;;;;;;;;6017025;29;20094;-79
2022/07/07 03:44:50;;;;;;;3.30;2.97;;;;;;;;;;6024762;29;20061;-79
2022/07/07 03:47:52;;;;;;;6.75;4.00;;;;;;;;;;6014209;29;20038;-80
2022/07/07 03:50:54;;;;;;;5.53;3.25;;;;;;;;;;6010945;29;20069;-80
2022/07/07 03:53:55;;;;;;;4.25;3.63;;;;;;;;;;6027145;29;20049;-80
2022/07/07 03:56:57;;;;;;;5.13;3.42;;;;;;;;;;6030802;29;20128;-80
2022/07/07 03:59:59;;;;;;;5.00;3.33;;;;;;;;;;6024178;29;20458;-79
2022/07/07 04:03:00;;;;;;;4.55;3.38;;;;;;;;;;6013343;29;20450;-81
2022/07/07 04:06:02;;;;;;;3.55;3.22;;;;;;;;;;6031987;29;20458;-79
2022/07/07 04:09:05;;;;;;;8.60;3.95;;;;;;;;;;6032532;29;20057;-79
2022/07/07 04:12:07;;;;;;;4.72;3.78;;;;;;;;;;6028772;29;20056;-80
2022/07/07 04:15:09;;;;;;;4.22;3.80;;;;;;;;;;6033201;29;20553;-81
2022/07/07 04:18:11;;;;;;;5.13;3.40;;;;;;;;;;6032301;29;20105;-80
2022/07/07 04:21:13;;;;;;;4.20;3.77;;;;;;;;;;6015273;29;20098;-81
2022/07/07 04:24:14;;;;;;;6.00;4.07;;;;;;;;;;6012166;29;20121;-79
2022/07/07 04:27:16;;;;;;;4.68;3.58;;;;;;;;;;6019788;29;20106;-81
2022/07/07 04:30:18;;;;;;;4.13;3.47;;;;;;;;;;6011966;29;20057;-80
2022/07/07 04:33:19;;;;;;;5.43;3.95;;;;;;;;;;6032147;29;20053;-79
2022/07/07 04:36:21;;;;;;;7.45;3.88;;;;;;;;;;6021179;29;20121;-78
2022/07/07 04:39:23;;;;;;;5.38;3.40;;;;;;;;;;6032225;29;20105;-79
2022/07/07 04:42:25;;;;;;;4.95;3.38;;;;;;;;;;6015704;29;20060;-80
2022/07/07 04:45:27;;;;;;;4.47;3.60;;;;;;;;;;6026620;29;20046;-79
2022/07/07 04:48:29;;;;;;;4.63;3.83;;;;;;;;;;6007639;29;20105;-79
2022/07/07 04:51:30;;;;;;;5.10;3.95;;;;;;;;;;6027058;29;20049;-81
2022/07/07 04:54:32;;;;;;;4.22;3.60;;;;;;;;;;6029756;29;20057;-81
2022/07/07 04:57:34;;;;;;;5.38;3.38;;;;;;;;;;6029199;29;20064;-80
2022/07/07 05:00:35;;;;;;;5.03;3.40;;;;;;;;;;6031661;29;20077;-79
2022/07/07 05:03:37;;;;;;;4.10;3.40;;;;;;;;;;6026521;29;20045;-81
2022/07/07 05:06:39;;;;;;;6.13;3.58;;;;;;;;;;5999142;29;20045;-81
2022/07/07 05:09:41;;;;;;;6.32;3.70;;;;;;;;;;6016201;29;20060;-80
2022/07/07 05:12:43;;;;;;;5.47;3.80;;;;;;;;;;6027827;29;20532;-81
2022/07/07 05:15:45;;;;;;;5.97;3.97;;;;;;;;;;6008978;29;20065;-79
2022/07/07 05:18:46;;;;;;;6.57;3.95;;;;;;;;;;6012457;29;20521;-80
2022/07/07 05:21:49;;;;;;;6.00;3.80;;;;;;;;;;6037298;29;20057;-79
2022/07/07 05:24:50;;;;;;;8.83;4.53;;;;;;;;;;6036289;29;20078;-80
2022/07/07 05:27:53;;;;;;;4.95;4.18;;;;;;;;;;6012308;29;20558;-81
2022/07/07 05:30:54;;;;;;;7.80;4.45;;;;;;;;;;6029538;29;20102;-81
2022/07/07 05:33:56;;;;;;;6.57;3.90;;;;;;;;;;6028041;29;20068;-81
2022/07/07 05:36:58;;;;;;;5.80;3.80;;;;;;;;;;6026125;29;20170;-79
2022/07/07 05:39:59;;;;;;;6.28;4.35;;;;;;;;;;6028691;29;20083;-79
2022/07/07 05:43:01;;;;;;;5.45;4.38;;;;;;;;;;6023666;29;20087;-81
2022/07/07 05:46:03;;;;;;;5.95;4.40;;;;;;;;;;6024954;29;20080;-81
2022/07/07 05:49:05;;;;;;;5.45;4.03;;;;;;;;;;6027373;29;20054;-78
2022/07/07 05:52:07;;;;;;;5.57;4.13;;;;;;;;;;6026075;29;20071;-79
2022/07/07 05:55:09;;;;;;;7.38;4.00;;;;;;;;;;6009172;29;20137;-80
2022/07/07 05:58:11;;;;;;;8.77;5.00;;;;;;;;;;6002027;29;20134;-79
2022/07/07 06:01:13;;;;;;;8.18;4.50;;;;;;;;;;6003507;29;20058;-79
2022/07/07 06:04:15;;;;;;;4.97;3.97;;;;;;;;;;6019955;29;20129;-80
2022/07/07 06:07:17;;;;;;;4.32;3.92;;;;;;;;;;6025428;29;20174;-79
2022/07/07 06:10:19;;;;;;;5.25;4.18;;;;;;;;;;6005183;29;20053;-80
2022/07/07 06:13:20;;;;;;;8.88;5.22;;;;;;;;;;6010890;29;20133;-79
2022/07/07 06:16:38;;;;;;;6.55;5.10;;;;;;;;;;6028055;29;20521;-80
2022/07/07 06:19:40;;;;;;;7.03;5.45;;;;;;;;;;5991673;29;20046;-79
2022/07/07 06:22:42;;;;;;;6.82;4.90;;;;;;;;;;6012303;29;20064;-79
2022/07/07 06:25:46;;;;;;;7.45;5.00;;;;;;;;;;6026898;29;20671;-80
2022/07/07 06:28:48;;;;;;;8.23;4.95;;;;;;;;;;6028836;29;20050;-80
2022/07/07 06:31:49;;;;;;;8.73;4.38;;;;;;;;;;6028782;29;20592;-80
2022/07/07 06:34:51;;;;;;;6.75;4.47;;;;;;;;;;6027293;29;20053;-80
2022/07/07 06:37:53;;;;;;;5.80;4.13;;;;;;;;;;6007859;29;20777;-80
2022/07/07 06:41:01;;;;;;;7.53;4.90;;;;;;;;;;6030229;29;20045;-79
2022/07/07 06:44:04;;;;;;;6.53;4.65;;;;;;;;;;6030343;29;20045;-81
2022/07/07 06:47:06;;;;;;;5.20;4.35;;;;;;;;;;6013395;29;20101;-80
2022/07/07 06:50:08;;;;;;;6.53;4.63;;;;;;;;;;6027659;29;20474;-80
2022/07/07 06:53:10;;;;;;;6.57;4.53;;;;;;;;;;6032048;29;20050;-80
2022/07/07 06:56:13;;;;;;;7.40;5.10;;;;;;;;;;5997811;29;20073;-79
2022/07/07 06:59:15;;;;;;;7.03;4.95;;;;;;;;;;6020127;29;20044;-80
2022/07/07 07:02:17;;;;;;;5.15;4.47;;;;;;;;;;6012519;29;20479;-81
2022/07/07 07:05:18;;;;;;;7.72;4.90;;;;;;;;;;6023415;29;20045;-81
2022/07/07 07:08:20;;;;;;;7.32;4.97;;;;;;;;;;6028801;29;20436;-78
2022/07/07 07:11:22;;;;;;;7.80;5.15;;;;;;;;;;6012862;29;20057;-80
2022/07/07 07:14:23;;;;;;;5.50;5.00;;;;;;;;;;6028024;29;20793;-82
2022/07/07 07:17:25;;;;;;;5.50;4.85;;;;;;;;;;6010643;29;20049;-82
2022/07/07 07:20:27;;;;;;;5.78;5.00;;;;;;;;;;6008751;29;20533;-82
2022/07/07 07:23:29;;;;;;;5.15;4.65;;;;;;;;;;6029397;29;20113;-80
2022/07/07 07:26:31;;;;;;;8.27;4.85;;;;;;;;;;6023312;29;20482;-80
2022/07/07 07:29:33;;;;;;;4.35;3.90;;;;;;;;;;6025413;29;20053;-81
2022/07/07 07:32:34;;;;;;;5.68;4.68;;;;;;;;;;6026937;29;20105;-81
2022/07/07 07:35:36;;;;;;;5.90;4.40;;;;;;;;;;6007851;29;20532;-80
2022/07/07 07:38:39;;;;;;;5.13;4.18;;;;;;;;;;6012809;29;20053;-81
2022/07/07 07:41:43;;;;;;;6.00;4.32;;;;;;;;;;6030406;29;20106;-81
2022/07/07 07:48:05;;;;;;;4.40;3.95;;;;;;;;;;5998277;29;20050;-83
2022/07/07 07:51:07;;;;;;;4.85;4.40;;;;;;;;;;6027533;29;20065;-80
2022/07/07 07:54:08;;;;;;;4.07;3.67;;;;;;;;;;6026155;29;20710;-80
2022/07/07 07:57:11;;;;;;;3.33;3.03;;;;;;;;;;6029113;29;20065;-81
2022/07/07 08:00:15;;;;;;;3.40;3.10;;;;;;;;;;6011407;29;20424;-78
2022/07/07 08:03:17;;;;;;;3.33;2.70;;;;;;;;;;6024435;29;20056;-79
2022/07/07 08:06:18;;;;;;;2.80;2.10;;;;;;;;;;6018620;29;20107;-79
2022/07/07 08:09:20;;;;;;;3.00;2.33;;;;;;;;;;5998532;29;20128;-80
2022/07/07 08:12:22;;;;;;;2.58;1.88;;;;;;;;;;5999088;29;20136;-78
2022/07/07 08:15:23;;;;;;;1.70;1.45;;;;;;;;;;6023125;29;20535;-79
2022/07/07 08:18:27;;;;;;;2.67;1.75;;;;;;;;;;6021862;29;20136;-81
2022/07/07 08:21:29;;;;;;;1.52;1.42;;;;;;;;;;6005611;29;20065;-81
2022/07/07 08:24:31;;;;;;;6.10;1.85;;;;;;;;;;6024105;29;20061;-78
2022/07/07 08:27:32;;;;;;;2.63;1.40;;;;;;;;;;6012704;29;20052;-80
2022/07/07 08:30:34;;;;;;;2.65;1.58;;;;;;;;;;6016941;29;20065;-79
2022/07/07 08:33:36;;;;;;;2.60;2.05;;;;;;;;;;6025385;29;20189;-80
2022/07/07 08:36:38;;;;;;;2.28;2.08;;;;;;;;;;6003989;29;20061;-80
2022/07/07 08:39:39;;;;;;;2.30;1.63;;;;;;;;;;6024666;29;20170;-79
2022/07/07 08:42:41;;;;;;;3.45;1.75;;;;;;;;;;6022963;29;20076;-79
2022/07/07 08:45:43;;;;;;;2.30;1.63;;;;;;;;;;6024125;29;20057;-79
2022/07/07 08:48:45;;;;;;;3.45;1.90;;;;;;;;;;6024233;29;20206;-79
2022/07/07 08:51:47;;;;;;;2.08;1.48;;;;;;;;;;6020051;29;20057;-79
2022/07/07 08:54:49;;;;;;;1.38;1.27;;;;;;;;;;6024727;29;20068;-80
2022/07/07 08:57:51;;;;;;;2.70;1.40;;;;;;;;;;6020422;29;20079;-79
2022/07/07 09:00:53;;;;;;;2.03;1.42;;;;;;;;;;6006871;29;20613;-79
2022/07/07 09:03:55;;;;;;;1.45;1.35;;;;;;;;;;6023924;29;20053;-79
2022/07/07 09:07:01;;;;;;;2.10;1.73;;;;;;;;;;6025605;29;20056;-79
2022/07/07 09:10:03;;;;;;;2.10;1.90;;;;;;;;;;6023913;29;20049;-80
2022/07/07 09:13:19;;;;;;;2.50;2.17;;;;;;;;;;6003056;29;20050;-78
2022/07/07 09:16:20;;;;;;;3.63;2.15;;;;;;;;;;6017035;29;20466;-80
2022/07/07 09:19:25;;;;;;;3.25;2.13;;;;;;;;;;6016730;29;20136;-80
2022/07/07 09:23:02;;;;;;;2.58;2.08;;;;;;;;;;6019118;29;20540;-80
2022/07/07 09:26:05;;;;;;;2.42;2.22;;;;;;;;;;5899607;29;20067;-79
2022/07/07 09:29:10;;;;;;;2.40;2.20;;;;;;;;;;6015329;29;20533;-79
2022/07/07 09:32:12;;;;;;;3.10;2.78;;;;;;;;;;6022045;29;20045;-78
2022/07/07 09:38:13;;;;;;;3.28;2.78;;;;;;;;;;6020520;29;20045;-79
2022/07/07 09:38:44;;;;;;;3.67;2.72;;;;;;;;;;6023530;29;20118;-79
2022/07/07 09:41:45;;;;;;;3.17;2.63;;;;;;;;;;6022178;29;20042;-79
2022/07/07 09:45:03;;;;;;;4.80;3.35;;;;;;;;;;6007347;29;20476;-80
2022/07/07 09:48:08;;;;;;;3.65;3.35;;;;;;;;;;6017487;29;20045;-81
2022/07/07 09:51:14;;;;;;;6.05;3.35;;;;;;;;;;5996610;29;20052;-78
2022/07/07 09:54:16;;;;;;;2.88;2.58;;;;;;;;;;6016976;29;20049;-79
2022/07/07 09:57:18;;;;;;;3.13;1.70;;;;;;;;;;6010686;29;20114;-79
2022/07/07 10:00:20;;;;;;;1.83;1.70;;;;;;;;;;6006272;29;20045;-80
2022/07/07 10:03:23;;;;;;;2.97;1.58;;;;;;;;;;6024618;29;20049;-79
2022/07/07 10:06:28;;;;;;;2.80;1.80;;;;;;;;;;6033513;29;20052;-82
2022/07/07 10:09:30;;;;;;;5.15;1.90;;;;;;;;;;6030307;29;20053;-81
2022/07/07 10:12:33;;;;;;;1.90;1.30;;;;;;;;;;6003412;29;20102;-80
2022/07/07 10:15:35;;;;;;;3.08;1.45;;;;;;;;;;6010381;29;20054;-81
2022/07/07 10:18:38;;;;;;;2.95;1.35;;;;;;;;;;6034869;29;20041;-79
2022/07/07 10:21:41;;;;;;;1.45;1.35;;;;;;;;;;6029871;29;20446;-80
2022/07/07 10:24:44;;;;;;;5.63;1.50;;;;;;;;;;6034357;29;20466;-81
2022/07/07 10:27:51;;;;;;;3.50;1.50;;;;;;;;;;6024878;29;20117;-78
2022/07/07 10:30:53;;;;;;;3.17;2.00;;;;;;;;;;6018033;29;20418;-82
2022/07/07 10:33:58;;;;;;;2.03;1.92;;;;;;;;;;6025250;29;20053;-82
2022/07/07 10:37:05;;;;;;;4.63;2.17;;;;;;;;;;6004460;29;20045;-82
2022/07/07 10:40:12;;;;;;;3.17;2.15;;;;;;;;;;6028811;29;20106;-81
2022/07/07 10:43:38;;;;;;;2.90;2.00;;;;;;;;;;6019445;29;20083;-81
2022/07/07 10:46:58;;;;;;;2.70;1.70;;;;;;;;;;6032821;29;20064;-81
2022/07/07 10:50:01;;;;;;;4.82;1.60;;;;;;;;;;6031821;29;20128;-81
2022/07/07 10:53:30;;;;;;;2.15;1.50;;;;;;;;;;6033259;29;20049;-82
2022/07/07 10:56:51;;;;;;;3.45;1.50;;;;;;;;;;6028200;29;20129;-81
2022/07/07 11:00:06;;;;;;;2.55;1.25;;;;;;;;;;6032276;29;20037;-80
2022/07/07 11:03:10;;;;;;;1.92;1.40;;;;;;;;;;6013049;29;20061;-82
2022/07/07 11:06:12;;;;;;;2.45;1.20;;;;;;;;;;6026768;29;20495;-81
2022/07/07 11:09:13;;;;;;;2.10;1.10;;;;;;;;;;6033196;29;20045;-80
2022/07/07 11:12:38;;;;;;;1.48;0.80;;;;;;;;;;6031699;29;20061;-82
2022/07/07 11:15:40;;;;;;;2.58;0.90;;;;;;;;;;6025417;29;20070;-82
2022/07/07 11:18:47;;;;;;;1.47;1.00;;;;;;;;;;6031929;29;20467;-82
2022/07/07 11:21:49;;;;;;;2.97;1.08;;;;;;;;;;6031777;29;20050;-82
2022/07/07 11:24:51;;;;;;;4.20;1.17;;;;;;;;;;6031927;29;20223;-80
2022/07/07 11:27:56;;;;;;;1.13;0.75;;;;;;;;;;6011560;29;20561;-82
2022/07/07 11:31:07;;;;;;;1.13;1.00;;;;;;;;;;6001663;29;20137;-82
2022/07/07 11:34:11;;;;;;;2.00;0.80;;;;;;;;;;6023046;29;20045;-82
2022/07/07 11:37:25;;;;;;;0.90;0.90;;;;;;;;;;6029812;29;20082;-80
2022/07/07 11:40:27;;;;;;;1.92;1.10;;;;;;;;;;6031546;29;20463;-81
2022/07/07 11:43:29;;;;;;;2.78;0.90;;;;;;;;;;6030174;29;20050;-80
2022/07/07 11:46:31;;;;;;;4.35;1.10;;;;;;;;;;6031610;29;20097;-81
2022/07/07 11:49:33;;;;;;;1.92;1.58;;;;;;;;;;6010158;29;20137;-80
2022/07/07 11:52:35;;;;;;;1.10;0.90;;;;;;;;;;6031361;29;20096;-80
2022/07/07 11:55:37;;;;;;;2.40;1.40;;;;;;;;;;6028297;29;20053;-80
2022/07/07 11:58:54;;;;;;;1.92;0.88;;;;;;;;;;6013610;29;20117;-81
2022/07/07 12:01:56;;;;;;;2.00;0.77;;;;;;;;;;6028623;29;20083;-81
2022/07/07 12:04:57;;;;;;;1.77;0.70;;;;;;;;;;6026630;29;20069;-80
2022/07/07 12:08:07;;;;;;;3.63;1.00;;;;;;;;;;6030152;29;20057;-80
2022/07/07 12:11:12;;;;;;;2.72;0.70;;;;;;;;;;6028223;29;20052;-79
2022/07/07 12:14:15;;;;;;;1.48;0.73;;;;;;;;;;6025026;29;20057;-81
2022/07/07 12:17:36;;;;;;;0.80;0.80;;;;;;;;;;6030182;29;20307;-81
2022/07/07 12:20:39;;;;;;;2.38;0.95;;;;;;;;;;6021677;29;20201;-83
2022/07/07 12:23:43;;;;;;;2.72;0.70;;;;;;;;;;6027052;29;20120;-80
2022/07/07 12:26:48;;;;;;;1.05;0.80;;;;;;;;;;6011352;29;20050;-81
2022/07/07 12:30:04;;;;;;;1.48;0.80;;;;;;;;;;6019324;29;20542;-82
2022/07/07 12:33:06;;;;;;;1.60;0.77;;;;;;;;;;6004148;29;20045;-82
2022/07/07 12:36:16;;;;;;;0.88;0.80;;;;;;;;;;6023463;29;20065;-84
2022/07/07 12:39:18;;;;;;;2.85;0.90;;;;;;;;;;6011858;29;20061;-80
2022/07/07 12:42:24;;;;;;;;;;;;;;;;;;6028196;29;20049;-79
2022/07/07 12:45:26;;;;;;;5.55;0.80;;;;;;;;;;6027245;29;19931;-85
2022/07/07 12:48:27;;;;;;;1.80;0.77;;;;;;;;;;6028485;29;20439;-83
2022/07/07 12:51:30;;;;;;;1.65;0.77;;;;;;;;;;6028187;29;20095;-81
2022/07/07 12:54:31;;;;;;;2.70;1.20;;;;;;;;;;6028231;29;20136;-82
2022/07/07 12:57:33;;;;;;;2.58;1.00;;;;;;;;;;6014020;29;20046;-83
2022/07/07 13:00:35;;;;;;;1.67;1.00;;;;;;;;;;6034013;29;22320;-83
2022/07/07 13:03:36;;;;;;;1.80;1.10;;;;;;;;;;6031825;29;20066;-81
2022/07/07 13:06:38;;;;;;;1.42;1.25;;;;;;;;;;6025161;29;20079;-83
2022/07/07 13:09:40;;;;;;;1.33;1.15;;;;;;;;;;6004897;29;20113;-82
2022/07/07 13:12:44;;;;;;;1.45;1.35;;;;;;;;;;6017227;29;20054;-84
2022/07/07 13:15:46;;;;;;;1.30;1.20;;;;;;;;;;6030083;29;20078;-83
2022/07/07 13:18:48;;;;;;;2.03;1.30;;;;;;;;;;6010398;29;20056;-83
2022/07/07 13:21:50;;;;;;;3.13;1.40;;;;;;;;;;6027006;29;20152;-82
2022/07/07 13:24:51;;;;;;;4.20;1.50;;;;;;;;;;6005418;29;20088;-81
2022/07/07 13:27:53;;;;;;;2.17;1.10;;;;;;;;;;5988528;29;20094;-83
2022/07/07 13:30:55;;;;;;;2.15;1.00;;;;;;;;;;6009399;29;20054;-83
2022/07/07 13:33:57;;;;;;;2.05;1.10;;;;;;;;;;6020987;29;20052;-81
2022/07/07 13:36:59;;;;;;;1.80;1.20;;;;;;;;;;6010074;29;20065;-82
2022/07/07 13:40:00;;;;;;;2.40;1.20;;;;;;;;;;6016095;29;20534;-79
2022/07/07 13:43:03;;;;;;;1.58;1.10;;;;;;;;;;6027274;29;20049;-79
2022/07/07 13:46:06;;;;;;;;;;;;;;;;;;6030302;29;20045;-83
2022/07/07 13:49:08;;;;;;;1.25;1.10;;;;;;;;;;6011584;29;19925;-83
2022/07/07 13:52:10;;;;;;;2.53;1.02;;;;;;;;;;6026247;29;20083;-83
2022/07/07 13:55:13;;;;;;;2.85;0.93;;;;;;;;;;6016530;29;20530;-81
2022/07/07 13:58:15;;;;;;;1.00;0.90;;;;;;;;;;6028130;29;20061;-81
2022/07/07 14:01:16;;;;;;;2.13;0.73;;;;;;;;;;6031412;29;20050;-81
2022/07/07 14:04:18;;;;;;;2.20;0.70;;;;;;;;;;6009914;29;20056;-80
2022/07/07 14:07:20;;;;;;;0.88;0.50;;;;;;;;;;6032555;29;20045;-81
2022/07/07 14:10:22;;;;;;;0.98;0.65;;;;;;;;;;6010240;29;20065;-79
2022/07/07 14:13:24;;;;;;;0.82;0.77;;;;;;;;;;6029200;29;20065;-80
2022/07/07 14:16:25;;;;;;;1.25;0.75;;;;;;;;;;6009639;29;20574;-81
2022/07/07 14:19:27;;;;;;;1.10;0.88;;;;;;;;;;6006485;29;20061;-81
2022/07/07 14:22:29;;;;;;;0.98;0.82;;;;;;;;;;6027522;29;20061;-80
2022/07/07 14:25:31;;;;;;;1.73;1.23;;;;;;;;;;6016755;29;20057;-80
2022/07/07 14:28:37;;;;;;;2.35;1.80;;;;;;;;;;6023538;29;20054;-81
2022/07/07 14:31:40;;;;;;;2.97;2.70;;;;;;;;;;6027633;29;20215;-81
2022/07/07 14:34:42;;;;;;;3.17;2.88;;;;;;;;;;6020207;29;20061;-80
2022/07/07 14:37:43;;;;;;;3.15;2.83;;;;;;;;;;6008014;29;20182;-78
2022/07/07 14:40:45;;;;;;;2.60;2.40;;;;;;;;;;6028722;29;20578;-81
2022/07/07 14:43:47;;;;;;;2.67;2.47;;;;;;;;;;6019947;29;20041;-80
2022/07/07 14:46:49;;;;;;;3.00;2.30;;;;;;;;;;6023174;29;20045;-78
2022/07/07 14:49:51;;;;;;;2.53;2.33;;;;;;;;;;6008346;29;20041;-77
2022/07/07 14:52:52;;;;;;;3.83;2.30;;;;;;;;;;6031635;29;20086;-81
2022/07/07 14:55:54;;;;;;;2.10;2.00;;;;;;;;;;6033098;29;20130;-80
2022/07/07 14:59:03;;;;;;;2.20;2.10;;;;;;;;;;6031497;29;20758;-78
2022/07/07 15:02:05;;;;;;;1.88;1.77;;;;;;;;;;6026469;29;20086;-77
2022/07/07 15:05:07;;;;;;;2.50;2.28;;;;;;;;;;6020608;29;20045;-77
2022/07/07 15:08:10;;;;;;;2.58;2.08;;;;;;;;;;6019200;29;20050;-78
2022/07/07 15:11:11;;;;;;;2.22;2.13;;;;;;;;;;6008907;29;20076;-78
2022/07/07 15:14:13;;;;;;;2.50;2.30;;;;;;;;;;6018287;29;20133;-78
2022/07/07 15:17:15;;;;;;;2.40;2.30;;;;;;;;;;6025965;29;20216;-77
2022/07/07 15:20:16;;;;;;;2.60;2.40;;;;;;;;;;6022430;29;20699;-80
2022/07/07 15:23:19;;;;;;;2.83;2.30;;;;;;;;;;6013153;29;20210;-81
2022/07/07 15:26:22;;;;;;;2.60;2.40;;;;;;;;;;6028474;29;20069;-80
2022/07/07 15:29:23;;;;;;;2.95;2.25;;;;;;;;;;6012612;29;20057;-77
2022/07/07 15:32:25;;;;;;;3.70;2.60;;;;;;;;;;6027296;29;20045;-78
2022/07/07 15:35:26;;;;;;;2.70;2.47;;;;;;;;;;6025622;29;20625;-80
2022/07/07 15:38:28;;;;;;;4.13;2.50;;;;;;;;;;6019238;29;20102;-79
2022/07/07 15:41:32;;;;;;;2.90;2.50;;;;;;;;;;6018346;29;20054;-78
2022/07/07 15:44:35;;;;;;;2.60;2.40;;;;;;;;;;6011710;29;20069;-78
2022/07/07 15:47:36;;;;;;;2.80;2.60;;;;;;;;;;6028924;29;20588;-76
2022/07/07 15:50:38;;;;;;;2.78;2.58;;;;;;;;;;6021326;29;20065;-79
2022/07/07 15:53:41;;;;;;;2.92;2.60;;;;;;;;;;6024529;29;20052;-79
2022/07/07 15:56:42;;;;;;;4.05;2.83;;;;;;;;;;6027178;29;20098;-79
2022/07/07 15:59:44;;;;;;;2.95;2.55;;;;;;;;;;6020009;29;20077;-79
2022/07/07 16:02:46;;;;;;;2.75;2.50;;;;;;;;;;6026667;29;20075;-79
2022/07/07 16:05:48;;;;;;;2.97;2.10;;;;;;;;;;6022404;29;20097;-78
2022/07/07 16:08:49;;;;;;;3.25;2.03;;;;;;;;;;6025707;29;20068;-77
2022/07/07 16:11:51;;;;;;;2.20;2.10;;;;;;;;;;6007843;29;20099;-77
2022/07/07 16:14:56;;;;;;;2.20;2.00;;;;;;;;;;6022078;29;20041;-78
2022/07/07 16:17:58;;;;;;;2.17;1.98;;;;;;;;;;6008282;29;20137;-77
2022/07/07 16:21:00;;;;;;;3.38;2.00;;;;;;;;;;6021040;29;20058;-78
2022/07/07 16:24:01;;;;;;;2.10;1.92;;;;;;;;;;6025375;29;20527;-78
2022/07/07 16:27:04;;;;;;;2.22;2.00;;;;;;;;;;6024769;29;20435;-78
2022/07/07 16:30:06;;;;;;;2.40;2.20;;;;;;;;;;6019771;29;20124;-77
2022/07/07 16:33:08;;;;;;;2.28;2.00;;;;;;;;;;6024842;29;20117;-78
2022/07/07 16:36:10;;;;;;;2.42;2.10;;;;;;;;;;6019448;29;20185;-78
2022/07/07 16:39:14;;;;;;;2.28;2.08;;;;;;;;;;6024697;29;20193;-76
2022/07/07 16:42:16;;;;;;;2.30;2.10;;;;;;;;;;6019856;29;20069;-77
2022/07/07 16:45:18;;;;;;;2.00;1.80;;;;;;;;;;6023688;29;20086;-76
2022/07/07 16:48:20;;;;;;;2.88;2.10;;;;;;;;;;6027146;29;20053;-77
2022/07/07 16:51:22;;;;;;;1.77;1.67;;;;;;;;;;6020317;29;20529;-79
2022/07/07 16:54:23;;;;;;;1.90;1.80;;;;;;;;;;6026619;29;20114;-78
2022/07/07 16:57:25;;;;;;;2.75;1.70;;;;;;;;;;6025916;29;20073;-78
2022/07/07 17:00:27;;;;;;;2.45;1.80;;;;;;;;;;6020757;29;20053;-77
2022/07/07 17:03:28;;;;;;;1.95;1.70;;;;;;;;;;6022674;29;20168;-79
2022/07/07 17:06:31;;;;;;;3.33;1.75;;;;;;;;;;6018079;29;20053;-78
2022/07/07 17:09:32;;;;;;;3.00;1.60;;;;;;;;;;6026524;29;20065;-79
2022/07/07 17:12:34;;;;;;;2.35;1.52;;;;;;;;;;6026133;29;20089;-79
2022/07/07 17:15:38;;;;;;;2.90;1.50;;;;;;;;;;6017384;29;20121;-78
2022/07/07 17:18:39;;;;;;;3.15;1.85;;;;;;;;;;6018848;29;20073;-80
2022/07/07 17:21:41;;;;;;;2.40;1.60;;;;;;;;;;6011683;29;20050;-79
2022/07/07 17:24:43;;;;;;;2.08;1.88;;;;;;;;;;6001168;29;20125;-80
2022/07/07 17:27:45;;;;;;;3.00;1.70;;;;;;;;;;5992141;29;20054;-79
2022/07/07 17:30:46;;;;;;;2.72;1.95;;;;;;;;;;6011473;29;20098;-75
2022/07/07 17:33:48;;;;;;;1.60;1.50;;;;;;;;;;6014905;29;20048;-79
2022/07/07 17:36:50;;;;;;;1.67;1.58;;;;;;;;;;6001271;29;20085;-80
2022/07/07 17:39:52;;;;;;;2.47;1.77;;;;;;;;;;6015537;29;20569;-80
2022/07/07 17:42:54;;;;;;;2.72;1.52;;;;;;;;;;6009288;29;20045;-79
2022/07/07 17:45:56;;;;;;;1.50;1.40;;;;;;;;;;6023590;29;20045;-78
2022/07/07 17:48:58;;;;;;;1.42;1.10;;;;;;;;;;6025946;29;20376;-78
2022/07/07 17:52:00;;;;;;;3.40;1.27;;;;;;;;;;6022235;29;20144;-77
2022/07/07 17:55:03;;;;;;;2.42;1.15;;;;;;;;;;6004556;29;20045;-78
2022/07/07 17:58:05;;;;;;;2.17;1.35;;;;;;;;;;6016208;29;20046;-79
2022/07/07 18:01:07;;;;;;;1.27;0.97;;;;;;;;;;6009069;29;20049;-79
2022/07/07 18:04:09;;;;;;;1.90;1.20;;;;;;;;;;6023762;29;20109;-78
2022/07/07 18:07:11;;;;;;;1.58;1.10;;;;;;;;;;6026395;29;20074;-77
2022/07/07 18:10:13;;;;;;;3.20;1.20;;;;;;;;;;6026616;29;20077;-77
2022/07/07 18:13:14;;;;;;;2.90;1.27;;;;;;;;;;6025094;29;20129;-80
2022/07/07 18:16:16;;;;;;;1.77;1.20;;;;;;;;;;6019831;29;20171;-80
2022/07/07 18:19:17;;;;;;;4.80;1.15;;;;;;;;;;6022045;29;20064;-78
2022/07/07 18:22:19;;;;;;;2.92;1.30;;;;;;;;;;6014730;29;20049;-79
2022/07/07 18:25:21;;;;;;;2.65;1.10;;;;;;;;;;6034541;29;20045;-80